Map

Track Data

SID SEASON NUMBER BASIN SUBBASIN NAME ISO_TIME NATURE LAT LON WMO_WIND WMO_PRES WMO_AGENCY TRACK_TYPE DIST2LAND LANDFALL IFLAG USA_AGENCY USA_ATCF_ID USA_LAT USA_LON USA_RECORD USA_STATUS USA_WIND USA_PRES USA_SSHS USA_R34_NE USA_R34_SE USA_R34_SW USA_R34_NW USA_R50_NE USA_R50_SE USA_R50_SW USA_R50_NW USA_R64_NE USA_R64_SE USA_R64_SW USA_R64_NW USA_POCI USA_ROCI USA_RMW USA_EYE TOKYO_LAT TOKYO_LON TOKYO_GRADE TOKYO_WIND TOKYO_PRES TOKYO_R50_DIR TOKYO_R50_LONG TOKYO_R50_SHORT TOKYO_R30_DIR TOKYO_R30_LONG TOKYO_R30_SHORT TOKYO_LAND CMA_LAT CMA_LON CMA_CAT CMA_WIND CMA_PRES HKO_LAT HKO_LON HKO_CAT HKO_WIND HKO_PRES NEWDELHI_LAT NEWDELHI_LON NEWDELHI_GRADE NEWDELHI_WIND NEWDELHI_PRES NEWDELHI_CI NEWDELHI_DP NEWDELHI_POCI REUNION_LAT REUNION_LON REUNION_TYPE REUNION_WIND REUNION_PRES REUNION_TNUM REUNION_CI REUNION_RMW REUNION_R34_NE REUNION_R34_SE REUNION_R34_SW REUNION_R34_NW REUNION_R50_NE REUNION_R50_SE REUNION_R50_SW REUNION_R50_NW REUNION_R64_NE REUNION_R64_SE REUNION_R64_SW REUNION_R64_NW BOM_LAT BOM_LON BOM_TYPE BOM_WIND BOM_PRES BOM_TNUM BOM_CI BOM_RMW BOM_R34_NE BOM_R34_SE BOM_R34_SW BOM_R34_NW BOM_R50_NE BOM_R50_SE BOM_R50_SW BOM_R50_NW BOM_R64_NE BOM_R64_SE BOM_R64_SW BOM_R64_NW BOM_ROCI BOM_POCI BOM_EYE BOM_POS_METHOD BOM_PRES_METHOD NADI_LAT NADI_LON NADI_CAT NADI_WIND NADI_PRES WELLINGTON_LAT WELLINGTON_LON WELLINGTON_WIND WELLINGTON_PRES DS824_LAT DS824_LON DS824_STAGE DS824_WIND DS824_PRES TD9636_LAT TD9636_LON TD9636_STAGE TD9636_WIND TD9636_PRES TD9635_LAT TD9635_LON TD9635_WIND TD9635_PRES TD9635_ROCI NEUMANN_LAT NEUMANN_LON NEUMANN_CLASS NEUMANN_WIND NEUMANN_PRES MLC_LAT MLC_LON MLC_CLASS MLC_WIND MLC_PRES USA_GUST BOM_GUST BOM_GUST_PER REUNION_GUST REUNION_GUST_PER USA_SEAHGT USA_SEARAD_NE USA_SEARAD_SE USA_SEARAD_SW USA_SEARAD_NW STORM_SPEED STORM_DIR
1933244N24144 1933 48 WP MM NOT_NAMED 1933-08-31 21:00:00 NR 23.9000 143.600 main 1278 1267 __________O___ -1 23.9000 143.600 2 2 25
1933244N24144 1933 48 WP MM NOT_NAMED 1933-09-01 00:00:00 NR 23.9945 143.636 main 1267 1256 __________P___ -1 23.9945 143.636 2 3 355
1933244N24144 1933 48 WP MM NOT_NAMED 1933-09-01 03:00:00 NR 24.1614 143.578 main 1246 1219 __________P___ -1 24.1614 143.578 2 6 330
1933244N24144 1933 48 WP MM NOT_NAMED 1933-09-01 06:00:00 NR 24.4728 143.331 main 1205 1138 __________P___ -1 24.4728 143.331 2 11 320
1933244N24144 1933 48 WP MM NOT_NAMED 1933-09-01 09:00:00 NR 25.0000 142.800 main 1138 1039 __________O___ -1 25.0000 142.800 2 18 316
1933244N24144 1933 48 WP MM NOT_NAMED 1933-09-01 12:00:00 NR 25.7771 141.924 main 1025 903 __________P___ -1 25.7771 141.924 2 25 314
1933244N24144 1933 48 WP MM NOT_NAMED 1933-09-01 15:00:00 NR 26.6961 140.820 main 888 746 __________P___ -1 26.6961 140.820 2 27 312
1933244N24144 1933 48 WP MM NOT_NAMED 1933-09-01 18:00:00 NR 27.6156 139.652 main 746 618 __________P___ -1 27.6156 139.652 2 26 311
1933244N24144 1933 48 WP MM NOT_NAMED 1933-09-01 21:00:00 NR 28.4000 138.600 main 618 540 __________O___ -1 28.4000 138.600 2 20 309
1933244N24144 1933 48 WP MM NOT_NAMED 1933-09-02 00:00:00 NR 28.8754 137.887 main 540 492 __________P___ -1 28.8754 137.887 2 14 306
1933244N24144 1933 48 WP MM NOT_NAMED 1933-09-02 03:00:00 NR 29.2096 137.330 main 489 447 __________P___ -1 29.2096 137.330 2 11 304
1933244N24144 1933 48 WP MM NOT_NAMED 1933-09-02 06:00:00 NR 29.4643 136.883 main 447 418 __________P___ -1 29.4643 136.883 2 9 304
1933244N24144 1933 48 WP MM NOT_NAMED 1933-09-02 09:00:00 NR 29.7000 136.500 main 418 379 __________O___ -1 29.7000 136.500 2 10 305
1933244N24144 1933 48 WP MM NOT_NAMED 1933-09-02 12:00:00 NR 30.0150 135.983 main 379 346 __________P___ -1 30.0150 135.983 2 10 307
1933244N24144 1933 48 WP MM NOT_NAMED 1933-09-02 15:00:00 NR 30.3219 135.532 main 345 304 __________P___ -1 30.3219 135.532 2 9 312
1933244N24144 1933 48 WP MM NOT_NAMED 1933-09-02 18:00:00 NR 30.6178 135.215 main 304 270 __________P___ -1 30.6178 135.215 2 7 327
1933244N24144 1933 48 WP MM NOT_NAMED 1933-09-02 21:00:00 NR 30.9000 135.100 main 270 249 __________O___ -1 30.9000 135.100 2 5 358
1933244N24144 1933 48 WP MM NOT_NAMED 1933-09-03 00:00:00 NR 31.1255 135.183 main 252 235 __________P___ -1 31.1255 135.183 2 6 36
1933244N24144 1933 48 WP MM NOT_NAMED 1933-09-03 03:00:00 NR 31.3440 135.479 main 235 200 __________P___ -1 31.3440 135.479 2 8 55
1933244N24144 1933 48 WP MM NOT_NAMED 1933-09-03 06:00:00 NR 31.5906 135.960 main 201 179 __________P___ -1 31.5906 135.960 2 11 60
1933244N24144 1933 48 WP MM NOT_NAMED 1933-09-03 09:00:00 NR 31.9000 136.600 main 183 177 __________O___ -1 31.9000 136.600 2 14 60
1933244N24144 1933 48 WP MM NOT_NAMED 1933-09-03 12:00:00 NR 32.2688 137.366 main 193 193 __________P___ -1 32.2688 137.366 2 16 60
1933244N24144 1933 48 WP MM NOT_NAMED 1933-09-03 15:00:00 NR 32.7045 138.274 main 212 158 __________P___ -1 32.7045 138.274 2 18 59
1933244N24144 1933 48 WP MM NOT_NAMED 1933-09-03 18:00:00 NR 33.2124 139.245 main 160 123 __________P___ -1 33.2124 139.245 2 19 56
1933244N24144 1933 48 WP MM NOT_NAMED 1933-09-03 21:00:00 NR 33.8000 140.200 main 125 104 __________O___ -1 33.8000 140.200 2 20 51
1933244N24144 1933 48 WP MM NOT_NAMED 1933-09-04 00:00:00 NR 34.4503 141.080 main 100 98 __________P___ -1 34.4503 141.080 2 20 46
1933244N24144 1933 48 WP MM NOT_NAMED 1933-09-04 03:00:00 NR 35.1802 141.926 main 106 106 __________P___ -1 35.1802 141.926 2 20 41
1933244N24144 1933 48 WP MM NOT_NAMED 1933-09-04 06:00:00 NR 35.9698 142.709 main 165 165 __________P___ -1 35.9698 142.709 2 20 36
1933244N24144 1933 48 WP MM NOT_NAMED 1933-09-04 09:00:00 NR 36.8000 143.400 main 214 214 __________O___ -1 36.8000 143.400 2 21 31
1933244N24144 1933 48 WP MM NOT_NAMED 1933-09-04 12:00:00 NR 37.7343 144.028 main 228 228 __________P___ -1 37.7343 144.028 2 21 26
1933244N24144 1933 48 WP MM NOT_NAMED 1933-09-04 15:00:00 NR 38.6901 144.557 main 232 227 __________P___ -1 38.6901 144.557 2 20 22
1933244N24144 1933 48 WP MM NOT_NAMED 1933-09-04 18:00:00 NR 39.5759 144.983 main 248 248 __________P___ -1 39.5759 144.983 2 17 20
1933244N24144 1933 48 WP MM NOT_NAMED 1933-09-04 21:00:00 NR 40.3000 145.300 main 249 226 __________O___ -1 40.3000 145.300 2 11 15
1933244N24144 1933 48 WP MM NOT_NAMED 1933-09-05 00:00:00 NR 40.6781 145.378 main 226 213 __________P___ -1 40.6781 145.378 2 6 5
1933244N24144 1933 48 WP MM NOT_NAMED 1933-09-05 03:00:00 NR 40.9030 145.366 main 213 200 __________P___ -1 40.9030 145.366 2 4 6
1933244N24144 1933 48 WP MM NOT_NAMED 1933-09-05 06:00:00 NR 41.1015 145.421 main 200 179 __________P___ -1 41.1015 145.421 2 6 27
1933244N24144 1933 48 WP MM NOT_NAMED 1933-09-05 09:00:00 NR 41.4000 145.700 main 182 152 __________O___ -1 41.4000 145.700 2 12 40
1933244N24144 1933 48 WP MM NOT_NAMED 1933-09-05 12:00:00 NR 42.0365 146.478 main 156 142 __________P___ -1 42.0365 146.478 2 19 44
1933244N24144 1933 48 WP MM NOT_NAMED 1933-09-05 15:00:00 NR 42.7688 147.506 main 163 163 __________P___ -1 42.7688 147.506 2 21 47
1933244N24144 1933 48 WP MM NOT_NAMED 1933-09-05 18:00:00 NR 43.4904 148.634 main 164 147 __________P___ -1 43.4904 148.634 2 21 50
1933244N24144 1933 48 WP MM NOT_NAMED 1933-09-05 21:00:00 NR 44.1000 149.700 main 151 133 __________O___ -1 44.1000 149.700 2 16 53
1933244N24144 1933 48 WP MM NOT_NAMED 1933-09-06 00:00:00 NR 44.4741 150.435 main 133 131 __________P___ -1 44.4741 150.435 2 12 57
1933244N24144 1933 48 WP MM NOT_NAMED 1933-09-06 03:00:00 NR 44.7343 151.069 main 148 140 __________P___ -1 44.7343 151.069 2 10 63
1933244N24144 1933 48 WP MM NOT_NAMED 1933-09-06 06:00:00 NR 44.9278 151.667 main 163 160 __________P___ -1 44.9278 151.667 2 9 67
1933244N24144 1933 48 WP MM NOT_NAMED 1933-09-06 09:00:00 NR 45.1000 152.300 main 184 184 __________O___ -1 45.1000 152.300 2 11 72
1933244N24144 1933 48 WP MM NOT_NAMED 1933-09-06 12:00:00 NR 45.2595 153.125 main 226 226 __________P___ -1 45.2595 153.125 2 12 75
1933244N24144 1933 48 WP MM NOT_NAMED 1933-09-06 15:00:00 NR 45.4130 153.988 main 288 288 __________P___ -1 45.4130 153.988 2 12 74
1933244N24144 1933 48 WP MM NOT_NAMED 1933-09-06 18:00:00 NR 45.6096 154.831 main 343 343 __________P___ -1 45.6096 154.831 2 12 67
1933244N24144 1933 48 WP MM NOT_NAMED 1933-09-06 21:00:00 NR 45.9000 155.600 main 400 400 __________O___ -1 45.9000 155.600 2 12 54
1933244N24144 1933 48 WP MM NOT_NAMED 1933-09-07 00:00:00 NR 46.3217 156.254 main 416 367 __________P___ -1 46.3217 156.254 2 13 41
1933244N24144 1933 48 WP MM NOT_NAMED 1933-09-07 03:00:00 NR 46.8535 156.815 main 359 317 __________P___ -1 46.8535 156.815 2 13 33
1933244N24144 1933 48 WP MM NOT_NAMED 1933-09-07 06:00:00 NR 47.4588 157.319 main 310 270 __________P___ -1 47.4588 157.319 2 14 28
1933244N24144 1933 48 WP MM NOT_NAMED 1933-09-07 09:00:00 NR 48.1000 157.800 main 270 __________O___ -1 48.1000 157.800 2 14 27

Digital Typhoon Data and Search

About IBTrACS Database

This database is a web-friendly format of International Best Track Archive for Climate Stewardship (IBTrACS), a global best track data archive curated by NOAA dating back to 1842.

Updated: 2021-10-21